Latest Coastal Weather Observations for Wyndham Airport

IDW60701

Issued at 4:33 pm WST Tuesday 27 September 2016 (issued every 10 minutes, with the page automatically refreshed every 10 minutes)

About coastal observations | Map of coastal stations | Coastal observations for WA | Marine services | Other Formats
Station Details ID: 001006 Name: WYNDHAM AERO Lat: -15.51 Lon: 128.15 Height: 3.8 m
Data from the previous 72 hours. | See also: Recent months at Wyndham Airport
Date/Time
WST
Temp
°C
Wind Pressure Rain since
9am
mm
Weather Cloud Vis
km
Sea
Height
m
Swell
Dir  Spd
kts
Gust
kts
hPa Trend Height
m
Period
s
Dir
27/04:30pm 34.5 N 21 28 1005.9 - 0.0 - - - - - - -
27/04:00pm 36.0 N 18 26 1005.6 - 0.0 - - - - - - -
27/03:30pm 37.3 N 15 19 1005.4 - 0.0 - - - - - - -
27/03:00pm 39.3 NNW 13 20 1005.3 - 0.0 - - - - - - -
27/02:59pm 39.5 NNW 13 20 1005.3 - 0.0 - - - - - - -
27/02:30pm 39.9 N 6 9 1005.4 - 0.0 - - - - - - -
27/02:00pm 40.5 NNW 6 12 1005.6 - 0.0 - - - - - - -
27/01:30pm 41.0 NNW 8 13 1005.9 - 0.0 - - - - - - -
27/01:00pm 40.0 WSW 10 17 1006.1 - 0.0 - - - - - - -
27/12:30pm 40.3 NW 9 13 1006.6 - 0.0 - - - - - - -
27/12:00pm 39.5 W 7 11 1007.2 - 0.0 - - - - - - -
27/11:30am 39.1 S 8 12 1008.0 - 0.0 - - - - - - -
27/11:00am 38.9 SSW 6 11 1008.8 - 0.0 - - - - - - -
27/10:30am 39.0 W 10 16 1009.4 - 0.0 - - - - - - -
27/10:00am 38.0 SW 9 14 1010.0 - 0.0 - - - - - - -
27/09:30am 36.3 WSW 11 16 1010.4 - 0.0 - - - - - - -
27/09:00am 36.3 WSW 13 19 1010.5 - 0.0 - - - - - - -
27/08:30am 35.9 WSW 14 17 1010.8 - 0.0 - - - - - - -
27/08:00am 34.5 W 6 11 1010.8 - 0.0 - - - - - - -
27/07:30am 32.2 WSW 4 6 1010.9 - 0.0 - - - - - - -
27/07:00am 30.0 CALM 0 3 1010.6 - 0.0 - - - - - - -
27/06:30am 28.0 NE 2 4 1010.3 - 0.0 - - - - - - -
27/06:00am 26.4 ESE 7 8 1010.2 - 0.0 - - - - - - -
27/05:30am 24.8 ESE 6 7 1009.7 - 0.0 - - - - - - -
27/05:00am 25.2 E 6 7 1009.7 - 0.0 - - - - - - -
27/04:30am 25.6 ESE 7 8 1009.4 - 0.0 - - - - - - -
27/04:00am 25.8 E 6 6 1009.1 - 0.0 - - - - - - -
27/03:30am 25.9 E 6 8 1008.6 - 0.0 - - - - - - -
27/03:00am 26.4 E 8 9 1008.3 - 0.0 - - - - - - -
27/02:30am 26.0 ESE 7 8 1008.2 - 0.0 - - - - - - -
27/02:00am 26.3 ESE 5 6 1008.0 - 0.0 - - - - - - -
27/01:30am 26.2 E 5 6 1008.2 - 0.0 - - - - - - -
27/01:00am 26.8 E 6 6 1008.3 - 0.0 - - - - - - -
27/12:30am 26.6 E 6 6 1008.6 - 0.0 - - - - - - -
27/12:00am 27.8 E 6 7 1009.0 - 0.0 - - - - - - -
 
Date/Time
WST
Temp
°C
Wind Pressure Rain since
9am
mm
Weather Cloud Vis
km
Sea
Height
m
Swell
Dir  Spd
kts
Gust
kts
hPa Trend Height
m
Period
s
Dir
26/11:30pm 28.0 ESE 7 8 1009.3 - 0.0 - - - - - - -
26/11:00pm 27.8 ESE 7 8 1009.6 - 0.0 - - - - - - -
26/10:30pm 28.4 E 3 4 1009.8 - 0.0 - - - - - - -
26/10:00pm 29.5 NNE 1 5 1009.9 - 0.0 - - - - - - -
26/09:30pm 31.4 N 1 4 1009.9 - 0.0 - - - - - - -
26/09:00pm 32.1 NE 5 8 1009.8 - 0.0 - - - - - - -
26/08:30pm 31.7 SE 5 10 1009.7 - 0.0 - - - - - - -
26/08:00pm 31.4 WNW 6 11 1009.1 - 0.0 - - - - - - -
26/07:30pm 31.9 NNW 5 11 1008.8 - 0.0 - - - - - - -
26/07:00pm 31.7 NNW 7 12 1008.5 - 0.0 - - - - - - -
26/06:30pm 31.9 N 15 23 1007.9 - 0.0 - - - - - - -
26/06:00pm 32.3 N 20 27 1007.1 - 0.0 - - - - - - -
26/05:30pm 32.8 N 21 28 1006.6 - 0.0 - - - - - - -
26/05:00pm 33.7 N 22 28 1006.2 - 0.0 - - - - - - -
26/04:30pm 35.1 N 20 27 1005.8 - 0.0 - - - - - - -
26/04:00pm 36.5 N 20 25 1005.4 - 0.0 - - - - - - -
26/03:41pm 38.9 N 17 25 1005.1 - 0.0 - - - - - - -
26/03:30pm 40.2 N 8 15 1005.1 - 0.0 - - - - - - -
26/03:00pm 40.0 NNW 12 16 1005.1 - 0.0 - - - - - - -
26/02:30pm 41.3 NNW 8 13 1005.1 - 0.0 - - - - - - -
26/02:00pm 41.2 N 9 16 1005.3 - 0.0 - - - - - - -
26/01:30pm 40.6 NNW 11 19 1005.5 - 0.0 - - - - - - -
26/01:00pm 40.2 NNW 9 15 1005.8 - 0.0 - - - - - - -
26/12:30pm 41.3 NW 9 15 1006.2 - 0.0 - - - - - - -
26/12:00pm 39.8 W 9 13 1006.6 - 0.0 - - - - - - -
26/11:30am 39.1 W 8 12 1007.2 - 0.0 - - - - - - -
26/11:00am 39.4 S 3 6 1007.8 - 0.0 - - - - - - -
26/10:30am 37.6 NW 2 6 1008.2 - 0.0 - - - - - - -
26/10:00am 37.5 SW 5 9 1008.6 - 0.0 - - - - - - -
26/09:30am 35.6 SW 6 11 1009.0 - 0.0 - - - - - - -
26/09:00am 35.4 W 6 9 1009.3 - 0.0 - - - - - - -
26/08:30am 34.0 W 4 6 1009.4 - 0.0 - - - - - - -
26/08:00am 32.7 W 5 7 1009.4 - 0.0 - - - - - - -
26/07:30am 31.8 NW 4 6 1009.5 - 0.0 - - - - - - -
26/07:00am 30.1 E 6 7 1009.3 - 0.0 - - - - - - -
26/06:30am 28.3 ESE 6 8 1009.1 - 0.0 - - - - - - -
26/06:00am 26.5 ENE 5 6 1008.6 - 0.0 - - - - - - -
26/05:30am 25.6 ESE 7 9 1008.3 - 0.0 - - - - - - -
26/05:00am 24.6 ESE 7 8 1007.8 - 0.0 - - - - - - -
26/04:30am 25.3 N 3 4 1007.3 - 0.0 - - - - - - -
26/04:00am 25.7 NE 1 3 1006.8 - 0.0 - - - - - - -
26/03:30am 25.8 ESE 5 6 1006.6 - 0.0 - - - - - - -
26/03:00am 25.9 E 6 7 1006.7 - 0.0 - - - - - - -
26/02:30am 26.2 E 6 7 1006.9 - 0.0 - - - - - - -
26/02:00am 26.8 ESE 7 8 1007.1 - 0.0 - - - - - - -
26/01:30am 26.9 E 8 9 1007.3 - 0.0 - - - - - - -
26/01:00am 27.7 E 8 9 1007.6 - 0.0 - - - - - - -
26/12:30am 27.9 E 7 9 1007.8 - 0.0 - - - - - - -
26/12:00am 27.6 E 8 9 1008.0 - 0.0 - - - - - - -
 
Date/Time
WST
Temp
°C
Wind Pressure Rain since
9am
mm
Weather Cloud Vis
km
Sea
Height
m
Swell
Dir  Spd
kts
Gust
kts
hPa Trend Height
m
Period
s
Dir
25/11:30pm 27.9 ESE 5 7 1008.3 - 0.0 - - - - - - -
25/11:00pm 28.2 ESE 8 10 1008.5 - 0.0 - - - - - - -
25/10:30pm 28.1 ESE 5 7 1008.6 - 0.0 - - - - - - -
25/10:00pm 29.4 SE 10 11 1008.6 - 0.0 - - - - - - -
25/09:30pm 29.8 E 7 9 1008.7 - 0.0 - - - - - - -
25/09:00pm 30.3 ENE 4 6 1008.6 - 0.0 - - - - - - -
25/08:30pm 32.4 NW 6 11 1008.5 - 0.0 - - - - - - -
25/08:00pm 31.7 SSE 4 7 1008.3 - 0.0 - - - - - - -
25/07:30pm 32.4 N 11 15 1007.7 - 0.0 - - - - - - -
25/07:00pm 33.0 N 16 20 1007.0 - 0.0 - - - - - - -
25/06:30pm 33.4 N 16 21 1006.6 - 0.0 - - - - - - -
25/06:00pm 33.5 N 18 22 1006.1 - 0.0 - - - - - - -
25/05:30pm 33.8 N 17 24 1005.7 - 0.0 - - - - - - -
25/05:00pm 35.0 N 13 18 1005.3 - 0.0 - - - - - - -
25/04:30pm 36.6 N 13 18 1004.9 - 0.0 - - - - - - -
25/04:00pm 38.9 NNE 9 14 1004.7 - 0.0 - - - - - - -
25/03:30pm 39.4 NNW 8 15 1004.8 - 0.0 - - - - - - -
25/03:00pm 39.3 NNW 8 13 1004.9 - 0.0 - - - - - - -
25/02:30pm 40.0 NNW 6 10 1005.0 - 0.0 - - - - - - -
25/02:00pm 40.2 NW 7 10 1005.1 - 0.0 - - - - - - -
25/01:30pm 39.2 WNW 8 17 1005.3 - 0.0 - - - - - - -
25/01:00pm 39.3 SW 7 10 1005.6 - 0.0 - - - - - - -
25/12:30pm 39.5 W 7 11 1005.9 - 0.0 - - - - - - -
25/12:00pm 39.1 SSE 4 8 1006.5 - 0.0 - - - - - - -
25/11:30am 37.6 SE 4 8 1007.1 - 0.0 - - - - - - -
25/11:00am 37.7 NW 4 8 1007.7 - 0.0 - - - - - - -
25/10:30am 37.2 ENE 4 7 1008.3 - 0.0 - - - - - - -
25/10:00am 36.0 SW 6 9 1009.0 - 0.0 - - - - - - -
25/09:30am 34.6 W 4 8 1009.4 - 0.0 - - - - - - -
25/09:00am 34.1 WNW 6 9 1009.6 - 0.0 - - - - - - -
25/08:30am 33.1 WNW 5 9 1009.6 - 0.0 - - - - - - -
25/08:00am 32.2 WNW 4 7 1009.6 - 0.0 - - - - - - -
25/07:30am 31.4 ENE 4 6 1009.4 - 0.0 - - - - - - -
25/07:00am 30.2 ESE 6 8 1009.2 - 0.0 - - - - - - -
25/06:30am 28.4 ESE 8 9 1008.8 - 0.0 - - - - - - -
25/06:00am 26.9 ESE 7 9 1008.5 - 0.0 - - - - - - -
25/05:30am 26.1 E 7 8 1008.3 - 0.0 - - - - - - -
25/05:00am 26.2 ESE 6 8 1007.9 - 0.0 - - - - - - -
25/04:30am 26.5 E 6 7 1007.7 - 0.0 - - - - - - -
25/04:00am 26.3 E 8 9 1007.3 - 0.0 - - - - - - -
25/03:30am 26.2 ESE 8 10 1007.2 - 0.0 - - - - - - -
25/03:00am 26.6 ESE 9 11 1007.2 - 0.0 - - - - - - -
25/02:30am 26.6 ESE 8 10 1007.2 - 0.0 - - - - - - -
25/02:00am 26.4 E 7 9 1007.2 - 0.0 - - - - - - -
25/01:30am 26.2 E 4 5 1007.1 - 0.0 - - - - - - -
25/01:00am 26.7 ESE 6 7 1007.3 - 0.0 - - - - - - -
25/12:30am 27.1 E 6 7 1007.4 - 0.0 - - - - - - -
25/12:00am 27.7 E 6 7 1007.6 - 0.0 - - - - - - -
 
Date/Time
WST
Temp
°C
Wind Pressure Rain since
9am
mm
Weather Cloud Vis
km
Sea
Height
m
Swell
Dir  Spd
kts
Gust
kts
hPa Trend Height
m
Period
s
Dir
24/11:30pm 27.9 CALM 0 0 1007.8 - 0.0 - - - - - - -
24/11:00pm 27.9 E 2 5 1007.9 - 0.0 - - - - - - -
24/10:30pm 29.2 CALM 0 0 1008.1 - 0.0 - - - - - - -
24/10:00pm 29.4 CALM 0 0 1008.1 - 0.0 - - - - - - -
24/09:30pm 29.7 ENE 4 5 1008.2 - 0.0 - - - - - - -
24/09:00pm 30.4 N 7 11 1008.3 - 0.0 - - - - - - -
24/08:30pm 30.3 N 5 8 1008.0 - 0.0 - - - - - - -
24/08:00pm 30.5 N 13 19 1007.4 - 0.0 - - - - - - -
24/07:30pm 30.8 N 17 23 1006.8 - 0.0 - - - - - - -
24/07:00pm 31.1 N 15 21 1006.6 - 0.0 - - - - - - -
24/06:30pm 31.7 N 17 23 1006.1 - 0.0 - - - - - - -
24/06:00pm 32.3 N 17 22 1005.6 - 0.0 - - - - - - -
24/05:30pm 33.9 N 13 20 1005.3 - 0.0 - - - - - - -
24/05:00pm 36.4 N 9 15 1004.8 - 0.0 - - - - - - -

Other Formats:

Comma delimited format used in spreadsheet applications
http://www.bom.gov.au/fwo/IDW60701/IDW60701.95214.axf

JavaScript Object Notation format (JSON) in row-major order
http://www.bom.gov.au/fwo/IDW60701/IDW60701.95214.json